Nearby METAR Reports

 

KAIK - Aiken, South Carolina, USA
Distance from station: NE 8mi, 13km
Updated: Sat, 28-May-2022 05:15 EDT
Overcast
Overcast
 Wind from calm
Wind: Calm
Temperature: 66°F , 19°C
Dew Point: 63°F , 17°C
Humidity: 88%
Barometer: 29.89 inHg , 1012.2 hPa
Clouds: Overcast
Visibility: 16 km
Cloud details: Overcast 6000 ft
2022/05/28 09:15 KAIK 280915Z AUTO 00000KT 10SM OVC060 19/17 A2989 RMK AO2 T01880173
KDNL - Augusta/Daniel, Georgia, USA
Distance from station: WSW 16mi, 26km
Updated: Sat, 28-May-2022 04:53 EDT
Overcast
Overcast
 Wind from calm
Wind: Calm
Temperature: 72°F , 22°C
Dew Point: 59°F , 15°C
Humidity: 65%
Barometer: 29.88 inHg , 1011.9 hPa
Clouds: Overcast
Visibility: 16 km
Cloud details: Overcast 6000 ft
2022/05/28 08:53 KDNL 280853Z AUTO 00000KT 10SM OVC060 22/15 A2988 RMK AO2 SLP113 T02170150 53000
 
KAGS - Augusta/Bush, Georgia, USA
Distance from station: SW 18mi, 28km
Updated: Sat, 28-May-2022 04:53 EDT
Overcast
Overcast
 Wind from calm
Wind: Calm
Temperature: 66°F , 19°C
Dew Point: 64°F , 18°C
Humidity: 94%
Barometer: 29.87 inHg , 1011.5 hPa
Clouds: Overcast
Visibility: 16 km
Cloud details: Overcast 7000 ft
2022/05/28 08:53 KAGS 280853Z AUTO 00000KT 10SM OVC070 19/18 A2987 RMK AO2 SLP113 T01890178 53001 $
KBNL - Barnwell, South Carolina, USA
Distance from station: SE 33mi, 52km
Updated: Sat, 28-May-2022 05:35 EDT
Mostly cloudy
Mostly cloudy
 Wind from WNW
Wind: WNW 6 km/h
Temperature: 68°F , 20°C
Dew Point: 66°F , 19°C
Humidity: 94%
Barometer: 29.87 inHg , 1011.5 hPa
Clouds: Mostly cloudy
Visibility: 16 km
Cloud details: Mostly cloudy 10000 ft
2022/05/28 09:35 KBNL 280935Z AUTO 29003KT 10SM BKN100 20/19 A2987 RMK AO2 LTG DSNT E AND SE
 
KXNO - North Af Auxfld, South Carolina, USA
Distance from station: E 41mi, 66km
Updated: Sat, 28-May-2022 04:56 EDT
Clear
Clear
 Wind from calm
Wind: Calm
Temperature: 68°F , 20°C
Dew Point: 68°F , 20°C
Humidity: 100%
Barometer: 29.87 inHg , 1011.5 hPa
Clouds: Clear
Visibility: 16 km
2022/05/28 08:56 KXNO 280856Z AUTO 00000KT 10SM CLR 20/20 A2987 RMK AO2 SLP115 T02030203 50000 $
KHQU - Mcduffie/Thomson, Georgia, USA
Distance from station: W 42mi, 68km
Updated: Sat, 28-May-2022 05:15 EDT
Clear
Clear
 Wind from calm
Wind: Calm
Temperature: 61°F , 16°C
Dew Point: 61°F , 16°C
Humidity: 100%
Barometer: 29.89 inHg , 1012.2 hPa
Clouds: Clear
Visibility: 16 km
2022/05/28 09:15 KHQU 280915Z AUTO 00000KT 10SM CLR 16/16 A2989 RMK AO2 T01620157
 
KCAE - Columbia, South Carolina, USA
Distance from station: ENE 46mi, 74km
Updated: Sat, 28-May-2022 04:56 EDT
Partly cloudy
Partly cloudy
 Wind from W
Wind: W 7 km/h
Temperature: 68°F , 20°C
Dew Point: 63°F , 17°C
Humidity: 83%
Barometer: 29.86 inHg , 1011.2 hPa
Clouds: Partly cloudy
Visibility: 16 km
Cloud details: Partly cloudy 5500 ft
2022/05/28 08:56 KCAE 280856Z 28004KT 10SM SCT055 20/17 A2986 RMK AO2 SLP107 T02000172 53001
K2J5 - Millen, Georgia, USA
Distance from station: SSW 48mi, 77km
Updated: Sat, 28-May-2022 05:15 EDT
Clear
Clear
 Wind from NW
Wind: NW 9 km/h
Temperature: 68°F , 20°C
Dew Point: 63°F , 17°C
Humidity: 83%
Barometer: 29.88 inHg , 1011.9 hPa
Clouds: Clear
Visibility: 16 km
2022/05/28 09:15 K2J5 280915Z AUTO 32005KT 10SM CLR 20/17 A2988 RMK AO2 T02050175
 
KAQX - Allendale, South Carolina, USA
Distance from station: SE 50mi, 80km
Updated: Sat, 28-May-2022 05:15 EDT
Overcast
Overcast
 Wind from calm
Wind: Calm
Temperature: 72°F , 22°C
Dew Point: 72°F , 22°C
Humidity: 100%
Barometer: 29.86 inHg , 1011.2 hPa
Clouds: Overcast
Visibility: 16 km
Cloud details: Overcast 400 ft
2022/05/28 09:15 KAQX 280915Z AUTO 00000KT 10SM OVC004 22/22 A2986 RMK AO2